createdAt,value
2019-03-10T00:01:16.896Z,4.35
2019-03-10T00:03:23.457Z,4.31
2019-03-10T00:05:30.223Z,4.34
2019-03-10T00:07:36.385Z,4.35
2019-03-10T00:09:42.853Z,4.40
2019-03-10T00:11:49.146Z,4.42
2019-03-10T00:13:58.553Z,4.42
2019-03-10T00:16:06.263Z,4.42
2019-03-10T00:18:20.136Z,4.46
2019-03-10T00:20:29.654Z,4.54
2019-03-10T00:22:36.314Z,4.60
2019-03-10T00:24:44.994Z,4.66
2019-03-10T00:26:51.158Z,4.73
2019-03-10T00:28:57.713Z,4.87
2019-03-10T00:31:03.987Z,4.98
2019-03-10T00:33:10.144Z,5.03
2019-03-10T00:35:16.311Z,5.12
2019-03-10T00:37:22.555Z,5.16
2019-03-10T00:39:38.760Z,5.19
2019-03-10T00:42:12.073Z,5.16
2019-03-10T00:44:44.840Z,5.15
2019-03-10T00:47:19.770Z,5.08
2019-03-10T00:49:56.020Z,4.97
2019-03-10T00:52:30.537Z,4.81
2019-03-10T00:54:36.701Z,4.73
2019-03-10T00:56:42.867Z,4.63
2019-03-10T00:58:49.026Z,4.53
2019-03-10T01:00:55.174Z,4.46
2019-03-10T01:03:01.387Z,4.39
2019-03-10T01:05:09.605Z,4.34
2019-03-10T01:07:15.910Z,4.31
2019-03-10T01:09:22.999Z,4.27
2019-03-10T01:11:29.452Z,4.24
2019-03-10T01:13:36.623Z,4.26
2019-03-10T01:15:43.501Z,4.26
2019-03-10T01:17:52.118Z,4.27
2019-03-10T01:19:58.970Z,4.24
2019-03-10T01:22:05.152Z,4.23
2019-03-10T01:24:12.414Z,4.26
2019-03-10T01:26:20.413Z,4.23
2019-03-10T01:28:30.145Z,4.23
2019-03-10T01:30:40.823Z,4.22
2019-03-10T01:33:14.951Z,4.24
2019-03-10T01:35:25.910Z,4.25
2019-03-10T01:37:32.075Z,4.22
2019-03-10T01:39:38.239Z,4.20
2019-03-10T01:41:44.502Z,4.19
2019-03-10T01:43:50.604Z,4.18
2019-03-10T01:45:56.827Z,4.19
2019-03-10T01:48:02.985Z,4.19
2019-03-10T01:50:13.343Z,4.19
2019-03-10T01:52:19.590Z,4.15
2019-03-10T01:54:25.804Z,4.11
2019-03-10T01:56:32.213Z,4.10
2019-03-10T01:58:38.271Z,4.08
2019-03-10T02:00:44.439Z,4.10
2019-03-10T02:02:50.687Z,4.07
2019-03-10T02:04:56.645Z,4.02
2019-03-10T02:07:02.796Z,3.93
2019-03-10T02:09:09.614Z,3.84
2019-03-10T02:11:15.949Z,3.78
2019-03-10T02:13:23.101Z,3.73
2019-03-10T02:15:29.466Z,3.72
2019-03-10T02:17:35.635Z,3.77
2019-03-10T02:19:41.786Z,3.86
2019-03-10T02:21:48.052Z,3.90
2019-03-10T02:23:54.212Z,3.93
2019-03-10T02:26:00.662Z,3.92
2019-03-10T02:28:06.826Z,3.93
2019-03-10T02:30:18.460Z,3.95
2019-03-10T02:32:25.070Z,3.98
2019-03-10T02:34:31.160Z,3.97
2019-03-10T02:36:37.204Z,4.04
2019-03-10T02:38:43.364Z,4.04
2019-03-10T02:40:49.639Z,4.06
2019-03-10T02:42:55.904Z,4.03
2019-03-10T02:45:02.372Z,4.07
2019-03-10T02:47:08.964Z,4.06
2019-03-10T02:49:15.367Z,4.04
2019-03-10T02:51:21.524Z,4.05
2019-03-10T02:53:27.683Z,4.04
2019-03-10T02:55:36.650Z,3.96
2019-03-10T02:57:47.417Z,3.88
2019-03-10T02:59:53.844Z,3.81
2019-03-10T03:02:00.113Z,3.81
2019-03-10T03:04:06.454Z,3.78
2019-03-10T03:06:13.174Z,3.81
2019-03-10T03:08:19.616Z,3.83
2019-03-10T03:10:26.915Z,3.81
2019-03-10T03:12:33.164Z,3.80
2019-03-10T03:14:40.053Z,3.79
2019-03-10T03:16:46.199Z,3.78
2019-03-10T03:18:52.586Z,3.75
2019-03-10T03:20:59.227Z,3.71
2019-03-10T03:23:05.697Z,3.76
2019-03-10T03:25:13.480Z,3.88
2019-03-10T03:27:19.753Z,3.94
2019-03-10T03:29:27.105Z,3.99
2019-03-10T03:31:33.391Z,4.03
2019-03-10T03:33:48.455Z,4.07
2019-03-10T03:36:03.144Z,4.13
2019-03-10T03:38:12.175Z,4.23
2019-03-10T03:40:19.148Z,4.30
2019-03-10T03:42:26.920Z,4.28
2019-03-10T03:44:33.897Z,4.29
2019-03-10T03:46:40.153Z,4.29
2019-03-10T03:48:46.404Z,4.26
2019-03-10T03:50:54.104Z,4.17
2019-03-10T03:53:00.463Z,4.19
2019-03-10T03:55:07.666Z,4.11
2019-03-10T03:57:13.995Z,4.07
2019-03-10T03:59:20.152Z,4.03
2019-03-10T04:01:31.939Z,3.96
2019-03-10T04:03:37.995Z,3.84
2019-03-10T04:05:53.342Z,3.80
2019-03-10T04:07:58.117Z,3.74
2019-03-10T04:10:09.407Z,3.66
2019-03-10T04:12:15.896Z,3.60
2019-03-10T04:14:22.270Z,3.59
2019-03-10T04:16:28.684Z,3.53
2019-03-10T04:18:35.241Z,3.46
2019-03-10T04:20:41.388Z,3.43
2019-03-10T04:22:47.642Z,3.49
2019-03-10T04:24:53.874Z,3.54
2019-03-10T04:26:59.855Z,3.62
2019-03-10T04:29:06.026Z,3.63
2019-03-10T04:31:12.378Z,3.64
2019-03-10T04:33:23.763Z,3.77
2019-03-10T04:35:31.560Z,3.76
2019-03-10T04:37:37.951Z,3.86
2019-03-10T04:39:48.912Z,3.83
2019-03-10T04:41:56.307Z,3.82
2019-03-10T04:44:02.524Z,3.77
2019-03-10T04:46:08.594Z,3.81
2019-03-10T04:48:14.845Z,3.81
2019-03-10T04:50:21.003Z,3.85
2019-03-10T04:52:27.021Z,3.81
2019-03-10T04:54:44.524Z,3.92
2019-03-10T04:56:52.077Z,3.98
2019-03-10T04:58:58.224Z,4.05
2019-03-10T05:01:04.392Z,3.96
2019-03-10T05:03:10.537Z,4.01
2019-03-10T05:05:17.941Z,4.02
2019-03-10T05:07:23.966Z,4.02
2019-03-10T05:09:30.149Z,3.98
2019-03-10T05:11:36.952Z,3.96
2019-03-10T05:13:43.205Z,3.96
2019-03-10T05:15:51.316Z,3.93
2019-03-10T05:17:57.408Z,3.90
2019-03-10T05:20:04.235Z,3.91
2019-03-10T05:22:10.479Z,3.92
2019-03-10T05:24:16.908Z,3.88
2019-03-10T05:26:24.425Z,4.10
2019-03-10T05:28:33.774Z,4.09
2019-03-10T05:30:40.256Z,4.04
2019-03-10T05:32:46.697Z,3.95
2019-03-10T05:34:54.524Z,4.10
2019-03-10T05:37:00.639Z,4.05
2019-03-10T05:39:07.932Z,4.18
2019-03-10T05:41:14.212Z,4.37
2019-03-10T05:43:20.355Z,4.30
2019-03-10T05:45:26.635Z,4.28
2019-03-10T05:47:33.086Z,4.20
2019-03-10T05:49:39.593Z,4.14
2019-03-10T05:51:46.256Z,4.12
2019-03-10T05:53:52.782Z,4.20
2019-03-10T05:55:59.134Z,4.17
2019-03-10T05:58:05.513Z,4.16
2019-03-10T06:00:12.050Z,4.16
2019-03-10T06:02:18.328Z,4.21
2019-03-10T06:04:24.574Z,4.21
2019-03-10T06:06:30.745Z,4.22
2019-03-10T06:08:36.898Z,4.22
2019-03-10T06:10:42.955Z,4.23
2019-03-10T06:12:49.224Z,4.26
2019-03-10T06:14:55.371Z,4.30
2019-03-10T06:17:01.426Z,4.36
2019-03-10T06:19:07.584Z,4.43
2019-03-10T06:21:13.637Z,4.49
2019-03-10T06:23:19.683Z,4.50
2019-03-10T06:25:25.842Z,4.51
2019-03-10T06:27:32.005Z,4.47
2019-03-10T06:29:37.998Z,4.60
2019-03-10T06:31:43.935Z,4.57
2019-03-10T06:33:50.174Z,4.56
2019-03-10T06:35:56.186Z,4.53
2019-03-10T06:38:02.301Z,4.53
2019-03-10T06:40:09.567Z,4.54
2019-03-10T06:42:15.425Z,4.55
2019-03-10T06:44:21.579Z,4.60
2019-03-10T06:46:27.632Z,4.65
2019-03-10T06:48:33.700Z,4.67
2019-03-10T06:50:39.926Z,4.71
2019-03-10T06:52:45.997Z,4.77
2019-03-10T06:54:52.154Z,4.79
2019-03-10T06:56:58.205Z,4.84
2019-03-10T06:59:04.119Z,4.99
2019-03-10T07:01:10.233Z,5.01
2019-03-10T07:03:16.281Z,5.10
2019-03-10T07:05:22.639Z,5.17
2019-03-10T07:07:28.600Z,5.19
2019-03-10T07:09:34.531Z,5.20
2019-03-10T07:11:40.592Z,5.33
2019-03-10T07:13:46.651Z,5.37
2019-03-10T07:15:53.162Z,5.39
2019-03-10T07:17:59.363Z,5.41
2019-03-10T07:20:09.289Z,5.41
2019-03-10T07:22:15.492Z,5.53
2019-03-10T07:24:22.779Z,5.53
2019-03-10T07:26:28.830Z,5.57
2019-03-10T07:28:37.491Z,5.55
2019-03-10T07:30:54.153Z,5.57
2019-03-10T07:33:17.816Z,5.60
2019-03-10T07:35:28.489Z,5.67
2019-03-10T07:37:42.134Z,5.64
2019-03-10T07:39:49.869Z,5.60
2019-03-10T07:42:00.568Z,5.48
2019-03-10T07:44:08.191Z,5.56
2019-03-10T07:46:32.450Z,5.70
2019-03-10T07:48:46.180Z,5.82
2019-03-10T07:51:08.832Z,5.90
2019-03-10T07:53:31.769Z,6.04
2019-03-10T07:55:37.528Z,6.14
2019-03-10T07:57:46.265Z,6.12
2019-03-10T07:59:59.868Z,6.18
2019-03-10T08:02:24.071Z,6.33
2019-03-10T08:04:34.429Z,6.34
2019-03-10T08:06:42.109Z,6.25
2019-03-10T08:08:57.076Z,6.25
2019-03-10T08:11:05.325Z,6.23
2019-03-10T08:13:19.013Z,6.19
2019-03-10T08:15:41.570Z,6.13
2019-03-10T08:17:53.662Z,6.16
2019-03-10T08:20:11.995Z,6.12
2019-03-10T08:22:35.873Z,6.02
2019-03-10T08:24:41.843Z,6.11
2019-03-10T08:26:58.343Z,6.34
2019-03-10T08:29:19.546Z,6.38
2019-03-10T08:31:29.968Z,6.45
2019-03-10T08:33:37.288Z,6.20
2019-03-10T08:35:46.223Z,6.31
2019-03-10T08:38:02.594Z,6.49
2019-03-10T08:40:13.154Z,6.59
2019-03-10T08:42:27.000Z,6.49
2019-03-10T08:44:35.935Z,6.58
2019-03-10T08:46:49.462Z,6.77
2019-03-10T08:48:57.152Z,6.83
2019-03-10T08:51:05.198Z,6.87
2019-03-10T08:53:15.816Z,6.77
2019-03-10T08:55:29.660Z,6.70
2019-03-10T08:57:49.232Z,6.81
2019-03-10T09:00:10.472Z,7.01
2019-03-10T09:02:18.107Z,7.00
2019-03-10T09:04:28.686Z,7.17
2019-03-10T09:06:51.551Z,7.25
2019-03-10T09:09:04.873Z,7.26
2019-03-10T09:11:29.062Z,7.38
2019-03-10T09:13:46.904Z,7.31
2019-03-10T09:16:03.494Z,7.26
2019-03-10T09:18:27.446Z,7.34
2019-03-10T09:20:35.144Z,7.58
2019-03-10T09:22:45.392Z,7.51
2019-03-10T09:25:09.262Z,7.49
2019-03-10T09:27:22.808Z,7.53
2019-03-10T09:29:34.502Z,7.49
2019-03-10T09:31:54.474Z,7.54
2019-03-10T09:34:02.184Z,7.62
2019-03-10T09:36:14.264Z,7.68
2019-03-10T09:38:38.263Z,7.73
2019-03-10T09:41:04.388Z,7.79
2019-03-10T09:43:30.504Z,7.67
2019-03-10T09:45:54.291Z,7.57
2019-03-10T09:48:14.033Z,7.62
2019-03-10T09:50:37.814Z,7.79
2019-03-10T09:52:48.061Z,7.70
2019-03-10T09:55:13.972Z,7.76
2019-03-10T09:57:27.728Z,7.84
2019-03-10T09:59:38.382Z,7.64
2019-03-10T10:01:51.911Z,7.88
2019-03-10T10:04:16.320Z,7.78
2019-03-10T10:06:29.829Z,7.68
2019-03-10T10:08:39.833Z,7.62
2019-03-10T10:10:47.685Z,7.62
2019-03-10T10:12:55.385Z,7.66
2019-03-10T10:15:06.241Z,7.74
2019-03-10T10:17:31.334Z,7.77
2019-03-10T10:19:44.193Z,7.94
2019-03-10T10:22:07.833Z,7.98
2019-03-10T10:24:31.705Z,7.97
2019-03-10T10:26:45.753Z,7.88
2019-03-10T10:28:56.413Z,8.02
2019-03-10T10:31:22.313Z,8.13
2019-03-10T10:33:31.450Z,8.27
2019-03-10T10:35:49.477Z,8.23
2019-03-10T10:37:55.648Z,8.32
2019-03-10T10:40:16.349Z,8.39
2019-03-10T10:42:40.002Z,8.48
2019-03-10T10:44:47.801Z,8.47
2019-03-10T10:47:01.794Z,8.44
2019-03-10T10:49:09.977Z,8.23
2019-03-10T10:51:20.863Z,8.22
2019-03-10T10:53:34.863Z,8.26
2019-03-10T10:55:45.423Z,8.31
2019-03-10T10:58:02.563Z,8.38
2019-03-10T11:00:18.326Z,8.36
2019-03-10T11:02:42.605Z,8.24
2019-03-10T11:04:53.030Z,8.21
2019-03-10T11:06:59.053Z,8.23
2019-03-10T11:09:09.949Z,8.26
2019-03-10T11:11:17.893Z,8.19
2019-03-10T11:13:36.023Z,8.34
2019-03-10T11:15:43.754Z,8.36
2019-03-10T11:18:12.203Z,8.33
2019-03-10T11:20:36.472Z,8.34
2019-03-10T11:22:42.546Z,8.21
2019-03-10T11:25:05.644Z,8.15
2019-03-10T11:27:29.775Z,8.06
2019-03-10T11:29:41.883Z,8.25
2019-03-10T11:31:54.068Z,8.40
2019-03-10T11:34:02.064Z,8.43
2019-03-10T11:36:09.160Z,8.49
2019-03-10T11:38:33.781Z,8.43
2019-03-10T11:40:47.383Z,8.26
2019-03-10T11:42:55.273Z,8.28
2019-03-10T11:45:09.529Z,8.31
2019-03-10T11:47:17.322Z,8.24
2019-03-10T11:49:30.856Z,8.12
2019-03-10T11:51:37.111Z,8.07
2019-03-10T11:53:45.004Z,8.22
2019-03-10T11:55:53.852Z,8.36
2019-03-10T11:58:05.294Z,8.53
2019-03-10T12:00:19.453Z,8.45
2019-03-10T12:02:39.565Z,8.60
2019-03-10T12:05:03.943Z,8.69
2019-03-10T12:07:12.223Z,8.79
2019-03-10T12:09:24.339Z,8.80
2019-03-10T12:11:32.532Z,8.86
2019-03-10T12:13:38.833Z,8.83
2019-03-10T12:15:45.371Z,8.72
2019-03-10T12:17:51.913Z,8.92
2019-03-10T12:19:59.534Z,8.92
2019-03-10T12:22:06.188Z,8.97
2019-03-10T12:24:12.464Z,8.98
2019-03-10T12:26:19.722Z,8.88
2019-03-10T12:28:26.264Z,8.76
2019-03-10T12:30:32.874Z,8.80
2019-03-10T12:32:39.323Z,8.59
2019-03-10T12:34:45.791Z,8.39
2019-03-10T12:36:52.072Z,8.28
2019-03-10T12:38:58.439Z,8.26
2019-03-10T12:41:04.876Z,8.29
2019-03-10T12:43:11.313Z,8.16
2019-03-10T12:45:17.812Z,8.07
2019-03-10T12:47:26.143Z,7.99
2019-03-10T12:49:32.915Z,7.96
2019-03-10T12:51:40.589Z,8.07
2019-03-10T12:53:46.844Z,8.22
2019-03-10T12:55:53.073Z,8.31
2019-03-10T12:58:04.092Z,8.52
2019-03-10T13:00:18.438Z,8.57
2019-03-10T13:02:25.112Z,8.76
2019-03-10T13:04:35.850Z,8.70
2019-03-10T13:06:43.664Z,8.76
2019-03-10T13:08:53.112Z,8.69
2019-03-10T13:11:04.194Z,8.73
2019-03-10T13:13:10.613Z,8.84
2019-03-10T13:15:17.714Z,8.96
2019-03-10T13:17:25.846Z,9.00
2019-03-10T13:19:32.098Z,8.84
2019-03-10T13:21:40.020Z,8.88
2019-03-10T13:23:46.376Z,8.88
2019-03-10T13:25:53.057Z,8.85
2019-03-10T13:27:59.457Z,8.79
2019-03-10T13:30:10.110Z,8.77
2019-03-10T13:32:16.507Z,8.81
2019-03-10T13:34:22.869Z,8.85
2019-03-10T13:36:29.335Z,8.90
2019-03-10T13:38:35.787Z,9.01
2019-03-10T13:40:42.244Z,8.89
2019-03-10T13:42:48.843Z,8.90
2019-03-10T13:44:55.446Z,8.82
2019-03-10T13:47:02.853Z,8.88
2019-03-10T13:49:09.860Z,8.85
2019-03-10T13:51:17.927Z,8.96
2019-03-10T13:53:24.375Z,9.09
2019-03-10T13:55:31.005Z,9.27
2019-03-10T13:57:37.657Z,9.33
2019-03-10T13:59:44.035Z,9.20
2019-03-10T14:01:51.906Z,9.21
2019-03-10T14:04:00.072Z,9.26
2019-03-10T14:06:06.692Z,9.28
2019-03-10T14:08:13.365Z,9.10
2019-03-10T14:10:19.909Z,9.08
2019-03-10T14:12:26.561Z,8.94
2019-03-10T14:14:32.775Z,8.90
2019-03-10T14:16:39.231Z,8.84
2019-03-10T14:18:45.874Z,8.74
2019-03-10T14:20:52.370Z,8.67
2019-03-10T14:22:58.521Z,8.63
2019-03-10T14:25:05.834Z,8.60
2019-03-10T14:27:12.364Z,8.44
2019-03-10T14:29:20.407Z,8.33
2019-03-10T14:31:26.855Z,8.25
2019-03-10T14:33:33.325Z,8.27
2019-03-10T14:35:40.014Z,8.31
2019-03-10T14:37:46.591Z,8.27
2019-03-10T14:39:53.655Z,8.27
2019-03-10T14:42:00.089Z,8.29
2019-03-10T14:44:08.328Z,8.23
2019-03-10T14:46:14.790Z,8.22
2019-03-10T14:48:21.218Z,8.22
2019-03-10T14:50:27.941Z,8.23
2019-03-10T14:52:34.861Z,8.22
2019-03-10T14:54:41.656Z,8.16
2019-03-10T14:56:50.822Z,8.11
2019-03-10T14:59:02.400Z,8.09
2019-03-10T15:01:09.441Z,8.07
2019-03-10T15:03:17.421Z,8.08
2019-03-10T15:05:24.212Z,8.11
2019-03-10T15:07:30.568Z,8.10
2019-03-10T15:09:36.939Z,8.09
2019-03-10T15:11:44.745Z,8.07
2019-03-10T15:13:51.185Z,8.06
2019-03-10T15:15:57.874Z,8.04
2019-03-10T15:18:09.062Z,8.01
2019-03-10T15:20:17.474Z,7.97
2019-03-10T15:22:25.383Z,7.95
2019-03-10T15:24:33.304Z,7.95
2019-03-10T15:26:45.494Z,7.91
2019-03-10T15:28:50.709Z,7.84
2019-03-10T15:30:58.863Z,7.83
2019-03-10T15:33:06.608Z,7.75
2019-03-10T15:35:14.142Z,7.73
2019-03-10T15:37:20.679Z,7.72
2019-03-10T15:39:28.279Z,7.69
2019-03-10T15:41:34.502Z,7.67
2019-03-10T15:43:41.202Z,7.62
2019-03-10T15:45:49.487Z,7.63
2019-03-10T15:47:56.612Z,7.61
2019-03-10T15:50:05.801Z,7.59
2019-03-10T15:52:13.285Z,7.56
2019-03-10T15:54:21.603Z,7.50
2019-03-10T15:56:28.042Z,7.49
2019-03-10T15:58:36.242Z,7.46
2019-03-10T16:00:42.937Z,7.38
2019-03-10T16:02:49.323Z,7.34
2019-03-10T16:04:55.851Z,7.32
2019-03-10T16:07:02.452Z,7.31
2019-03-10T16:09:10.832Z,7.27
2019-03-10T16:11:17.599Z,7.24
2019-03-10T16:13:23.921Z,7.20
2019-03-10T16:15:34.229Z,7.18
2019-03-10T16:17:42.147Z,7.14
2019-03-10T16:19:48.998Z,7.11
2019-03-10T16:21:58.483Z,7.05
2019-03-10T16:24:08.083Z,6.99
2019-03-10T16:26:14.438Z,6.93
2019-03-10T16:28:20.813Z,6.89
2019-03-10T16:30:28.572Z,6.80
2019-03-10T16:32:34.951Z,6.76
2019-03-10T16:34:41.428Z,6.71
2019-03-10T16:36:48.404Z,6.68
2019-03-10T16:38:55.067Z,6.63
2019-03-10T16:41:01.741Z,6.59
2019-03-10T16:43:08.546Z,6.57
2019-03-10T16:45:23.536Z,6.53
2019-03-10T16:47:30.202Z,6.50
2019-03-10T16:49:36.682Z,6.48
2019-03-10T16:51:43.779Z,6.45
2019-03-10T16:53:50.257Z,6.44
2019-03-10T16:56:02.741Z,6.39
2019-03-10T16:58:07.082Z,6.37
2019-03-10T17:00:15.751Z,6.33
2019-03-10T17:02:23.885Z,6.31
2019-03-10T17:04:33.978Z,6.26
2019-03-10T17:06:44.106Z,6.22
2019-03-10T17:08:50.552Z,6.19
2019-03-10T17:10:56.993Z,6.19
2019-03-10T17:13:03.734Z,6.17
2019-03-10T17:15:17.679Z,6.16
2019-03-10T17:17:25.752Z,6.14
2019-03-10T17:19:34.450Z,6.12
2019-03-10T17:21:42.084Z,6.08
2019-03-10T17:23:48.895Z,6.07
2019-03-10T17:25:55.198Z,6.05
2019-03-10T17:28:01.966Z,6.02
2019-03-10T17:30:18.753Z,6.00
2019-03-10T17:32:30.157Z,5.97
2019-03-10T17:34:36.856Z,5.94
2019-03-10T17:36:44.398Z,5.89
2019-03-10T17:38:52.328Z,5.85
2019-03-10T17:40:58.902Z,5.82
2019-03-10T17:43:07.861Z,5.81
2019-03-10T17:45:27.478Z,5.79
2019-03-10T17:47:35.455Z,5.77
2019-03-10T17:49:42.084Z,5.74
2019-03-10T17:51:50.054Z,5.70
2019-03-10T17:53:56.811Z,5.69
2019-03-10T17:56:04.934Z,5.74
2019-03-10T17:58:11.485Z,5.74
2019-03-10T18:00:23.994Z,5.81
2019-03-10T18:02:30.654Z,5.77
2019-03-10T18:04:37.296Z,5.74
2019-03-10T18:06:43.874Z,5.73
2019-03-10T18:08:50.275Z,5.73
2019-03-10T18:10:56.824Z,5.73
2019-03-10T18:13:05.105Z,5.70
2019-03-10T18:15:15.704Z,5.69
2019-03-10T18:17:22.391Z,5.65
2019-03-10T18:19:31.615Z,5.59
2019-03-10T18:21:38.164Z,5.61
2019-03-10T18:23:47.932Z,5.57
2019-03-10T18:25:55.931Z,5.56
2019-03-10T18:28:06.373Z,5.52
2019-03-10T18:30:23.441Z,5.45
2019-03-10T18:32:31.663Z,5.45
2019-03-10T18:34:38.144Z,5.42
2019-03-10T18:36:53.504Z,5.44
2019-03-10T18:39:02.394Z,5.38
2019-03-10T18:41:10.875Z,5.38
2019-03-10T18:43:17.854Z,5.36
2019-03-10T18:45:24.604Z,5.37
2019-03-10T18:47:31.591Z,5.34
2019-03-10T18:49:38.098Z,5.28
2019-03-10T18:51:44.644Z,5.29
2019-03-10T18:53:53.053Z,5.28
2019-03-10T18:56:02.514Z,5.30
2019-03-10T18:58:13.825Z,5.29
2019-03-10T19:00:30.194Z,5.31
2019-03-10T19:02:41.519Z,5.34
2019-03-10T19:04:48.000Z,5.33
2019-03-10T19:06:54.736Z,5.32
2019-03-10T19:09:03.621Z,5.29
2019-03-10T19:11:12.031Z,5.28
2019-03-10T19:13:19.013Z,5.24
2019-03-10T19:15:30.162Z,5.25
2019-03-10T19:17:38.298Z,5.24
2019-03-10T19:19:46.001Z,5.24
2019-03-10T19:21:52.964Z,5.22
2019-03-10T19:24:00.781Z,5.20
2019-03-10T19:26:08.245Z,5.16
2019-03-10T19:28:16.212Z,5.16
2019-03-10T19:30:26.806Z,5.11
2019-03-10T19:32:33.550Z,5.04
2019-03-10T19:34:42.482Z,5.02
2019-03-10T19:36:57.106Z,5.01
2019-03-10T19:38:59.807Z,4.99
2019-03-10T19:41:08.216Z,4.98
2019-03-10T19:43:14.748Z,4.95
2019-03-10T19:45:25.163Z,4.94
2019-03-10T19:47:31.817Z,4.94
2019-03-10T19:49:39.918Z,4.97
2019-03-10T19:51:47.006Z,4.95
2019-03-10T19:53:53.557Z,4.91
2019-03-10T19:56:03.871Z,4.89
2019-03-10T19:58:10.272Z,4.89
2019-03-10T20:00:20.860Z,4.88
2019-03-10T20:02:32.263Z,4.87
2019-03-10T20:04:39.911Z,4.84
2019-03-10T20:06:46.398Z,4.83
2019-03-10T20:08:54.880Z,4.82
2019-03-10T20:11:01.520Z,4.80
2019-03-10T20:13:08.137Z,4.79
2019-03-10T20:15:25.040Z,4.78
2019-03-10T20:17:31.543Z,4.77
2019-03-10T20:19:39.599Z,4.78
2019-03-10T20:21:46.115Z,4.76
2019-03-10T20:23:54.282Z,4.73
2019-03-10T20:26:00.940Z,4.71
2019-03-10T20:28:09.277Z,4.65
2019-03-10T20:30:23.690Z,4.63
2019-03-10T20:32:31.687Z,4.61
2019-03-10T20:34:39.484Z,4.57
2019-03-10T20:36:48.746Z,4.50
2019-03-10T20:38:56.426Z,4.46
2019-03-10T20:41:04.318Z,4.42
2019-03-10T20:43:12.107Z,4.38
2019-03-10T20:45:18.760Z,4.36
2019-03-10T20:47:25.769Z,4.36
2019-03-10T20:49:32.397Z,4.34
2019-03-10T20:51:40.699Z,4.29
2019-03-10T20:53:47.308Z,4.24
2019-03-10T20:55:53.879Z,4.16
2019-03-10T20:58:01.076Z,4.10
2019-03-10T21:00:23.863Z,3.99
2019-03-10T21:02:31.682Z,3.92
2019-03-10T21:04:38.845Z,3.88
2019-03-10T21:06:46.554Z,3.85
2019-03-10T21:08:55.218Z,3.74
2019-03-10T21:11:02.186Z,3.63
2019-03-10T21:13:08.913Z,3.54
2019-03-10T21:15:21.527Z,3.39
2019-03-10T21:17:27.994Z,3.29
2019-03-10T21:19:34.602Z,3.21
2019-03-10T21:21:43.180Z,3.12
2019-03-10T21:23:55.463Z,3.07
2019-03-10T21:26:02.136Z,3.02
2019-03-10T21:28:08.785Z,3.03
2019-03-10T21:30:21.469Z,3.02
2019-03-10T21:32:27.900Z,3.04
2019-03-10T21:34:34.577Z,3.03
2019-03-10T21:36:43.599Z,2.99
2019-03-10T21:38:51.540Z,2.96
2019-03-10T21:40:59.093Z,2.94
2019-03-10T21:43:05.700Z,2.93
2019-03-10T21:45:12.651Z,2.94
2019-03-10T21:47:18.981Z,2.95
2019-03-10T21:49:25.424Z,2.95
2019-03-10T21:51:31.803Z,2.95
2019-03-10T21:53:38.284Z,2.92
2019-03-10T21:55:45.857Z,2.91
2019-03-10T21:58:12.910Z,2.91
2019-03-10T22:00:23.057Z,2.88
2019-03-10T22:02:41.457Z,2.82
2019-03-10T22:04:47.768Z,2.76
2019-03-10T22:06:55.468Z,2.77
2019-03-10T22:09:04.390Z,2.77
2019-03-10T22:11:11.146Z,2.78
2019-03-10T22:13:17.330Z,2.77
2019-03-10T22:15:23.583Z,2.76
2019-03-10T22:17:29.730Z,2.77
2019-03-10T22:19:35.783Z,2.75
2019-03-10T22:21:42.114Z,2.73
2019-03-10T22:23:58.896Z,2.77
2019-03-10T22:25:56.610Z,2.77
2019-03-10T22:28:02.679Z,2.76
2019-03-10T22:30:24.606Z,2.76
2019-03-10T22:32:30.761Z,2.78
2019-03-10T22:34:37.006Z,2.81
2019-03-10T22:36:43.691Z,2.81
2019-03-10T22:38:49.745Z,2.82
2019-03-10T22:40:56.006Z,2.82
2019-03-10T22:43:02.275Z,2.81
2019-03-10T22:45:15.690Z,2.82
2019-03-10T22:47:22.284Z,2.86
2019-03-10T22:49:28.522Z,2.88
2019-03-10T22:51:34.784Z,2.88
2019-03-10T22:53:40.831Z,2.90
2019-03-10T22:55:47.100Z,2.92
2019-03-10T22:57:57.657Z,2.90
2019-03-10T23:00:05.564Z,2.90
2019-03-10T23:02:13.240Z,2.92
2019-03-10T23:04:19.400Z,2.85
2019-03-10T23:06:25.753Z,2.69
2019-03-10T23:08:32.344Z,2.60
2019-03-10T23:10:38.607Z,2.52
2019-03-10T23:12:44.863Z,2.46
2019-03-10T23:14:51.104Z,2.43
2019-03-10T23:16:58.395Z,2.42
2019-03-10T23:19:04.868Z,2.41
2019-03-10T23:21:10.920Z,2.44
2019-03-10T23:23:17.065Z,2.48
2019-03-10T23:25:23.255Z,2.53
2019-03-10T23:27:29.583Z,2.57
2019-03-10T23:29:36.070Z,2.59
2019-03-10T23:31:42.326Z,2.61
2019-03-10T23:33:48.576Z,2.64
2019-03-10T23:35:55.658Z,2.66
2019-03-10T23:38:01.927Z,2.68
2019-03-10T23:40:14.322Z,2.68
2019-03-10T23:42:20.487Z,2.68
2019-03-10T23:44:26.637Z,2.66
2019-03-10T23:46:33.413Z,2.68
2019-03-10T23:48:39.577Z,2.69
2019-03-10T23:50:45.836Z,2.69
2019-03-10T23:52:51.994Z,2.68
2019-03-10T23:54:58.453Z,2.69
2019-03-10T23:57:05.760Z,2.67
2019-03-10T23:59:11.999Z,2.66
